Terminal Aerodrome Forecast
Issued by NWS

Home | Current Version | Previous Version | Text Only | Print | Product List | Glossary On
Versions: 1 2 3 4 5 6 7 8 9 10 11 12
915
FTUS42 KTBW 231428 AAA
TAFRSW
TAF AMD
KRSW 231428Z 2314/2412 06006KT P6SM VCSH SCT020 BKN050
     FM231800 31006KT P6SM VCTS FEW020CB SCT030 BKN050
     FM240100 30005KT P6SM SCT025 BKN050
     FM240700 31004KT P6SM FEW030 BKN100=

USA.gov is the U.S. government's official web portal to all federal, state and local government web resources and services.